createdAt,value
2019-06-26T00:04:13.994Z,16.33
2019-06-26T00:09:23.071Z,24.30
2019-06-26T00:14:32.422Z,18.29
2019-06-26T00:19:41.471Z,21.90
2019-06-26T00:24:50.600Z,25.57
2019-06-26T00:29:59.718Z,28.97
2019-06-26T00:35:09.015Z,29.84
2019-06-26T00:40:18.093Z,16.41
2019-06-26T00:45:27.375Z,27.64
2019-06-26T00:50:36.496Z,21.24
2019-06-26T00:55:45.670Z,20.48
2019-06-26T01:00:54.751Z,18.99
2019-06-26T01:06:03.879Z,16.99
2019-06-26T01:11:12.957Z,17.03
2019-06-26T01:16:22.139Z,21.99
2019-06-26T01:21:31.215Z,18.99
2019-06-26T01:26:40.531Z,18.95
2019-06-26T01:31:49.597Z,20.26
2019-06-26T01:36:58.895Z,19.43
2019-06-26T01:42:08.000Z,16.04
2019-06-26T01:47:17.125Z,12.97
2019-06-26T01:52:26.238Z,19.61
2019-06-26T01:57:35.352Z,16.34
2019-06-26T02:02:44.409Z,14.37
2019-06-26T02:07:53.549Z,10.19
2019-06-26T02:13:02.650Z,13.79
2019-06-26T02:18:11.824Z,18.83
2019-06-26T02:23:20.914Z,11.36
2019-06-26T02:28:30.113Z,12.72
2019-06-26T02:33:39.198Z,13.24
2019-06-26T02:38:48.337Z,12.84
2019-06-26T02:43:57.462Z,17.25
2019-06-26T02:49:06.745Z,14.74
2019-06-26T02:54:15.840Z,9.17
2019-06-26T02:59:25.061Z,12.43
2019-06-26T03:04:34.129Z,11.26
2019-06-26T03:09:43.296Z,13.61
2019-06-26T03:15:07.790Z,12.33
2019-06-26T03:20:01.058Z,10.76
2019-06-26T03:25:10.136Z,18.75
2019-06-26T03:30:19.266Z,17.25
2019-06-26T03:35:28.354Z,15.47
2019-06-26T03:40:37.568Z,11.24
2019-06-26T03:45:46.645Z,13.22
2019-06-26T03:50:55.763Z,13.26
2019-06-26T03:56:04.842Z,12.35
2019-06-26T04:01:14.020Z,11.58
2019-06-26T04:06:23.038Z,13.48
2019-06-26T04:11:32.156Z,12.66
2019-06-26T04:16:41.468Z,14.76
2019-06-26T04:21:50.816Z,16.37
2019-06-26T04:26:59.880Z,12.55
2019-06-26T04:32:09.194Z,14.54
2019-06-26T04:37:18.297Z,19.08
2019-06-26T04:42:27.504Z,16.61
2019-06-26T04:47:36.601Z,12.83
2019-06-26T04:52:45.994Z,18.95
2019-06-26T04:57:55.243Z,20.11
2019-06-26T05:03:04.372Z,22.71
2019-06-26T05:08:13.458Z,22.58
2019-06-26T05:13:22.604Z,25.02
2019-06-26T05:18:31.695Z,21.03
2019-06-26T05:23:40.857Z,22.13
2019-06-26T05:28:52.549Z,21.75
2019-06-26T05:33:51.665Z,22.73
2019-06-26T05:39:00.780Z,23.07
2019-06-26T05:44:10.094Z,23.39
2019-06-26T05:49:19.214Z,17.78
2019-06-26T05:54:28.511Z,21.11
2019-06-26T05:59:37.598Z,15.70
2019-06-26T06:04:46.877Z,20.28
2019-06-26T06:09:56.078Z,18.44
2019-06-26T06:15:05.291Z,16.50
2019-06-26T06:20:14.346Z,12.90
2019-06-26T06:25:23.602Z,14.95
2019-06-26T06:30:32.662Z,13.89
2019-06-26T06:35:41.839Z,15.50
2019-06-26T06:40:50.964Z,14.27
2019-06-26T06:46:00.137Z,14.54
2019-06-26T06:51:09.247Z,11.25
2019-06-26T06:56:19.656Z,8.92
2019-06-26T07:01:18.754Z,8.38
2019-06-26T07:06:27.954Z,12.41
2019-06-26T07:11:37.114Z,8.52
2019-06-26T07:16:46.285Z,9.55
2019-06-26T07:21:55.437Z,10.39
2019-06-26T07:27:04.585Z,9.93
2019-06-26T07:32:13.727Z,8.80
2019-06-26T07:37:23.078Z,10.09
2019-06-26T07:42:32.189Z,11.97
2019-06-26T07:47:43.842Z,10.83
2019-06-26T07:52:49.912Z,12.07
2019-06-26T07:57:59.161Z,9.97
2019-06-26T08:03:08.193Z,12.17
2019-06-26T08:08:17.510Z,11.40
2019-06-26T08:13:26.636Z,11.09
2019-06-26T08:18:35.794Z,10.73
2019-06-26T08:23:44.910Z,10.59
2019-06-26T08:28:54.120Z,11.72
2019-06-26T08:34:03.221Z,12.58
2019-06-26T08:39:12.365Z,12.50
2019-06-26T08:44:21.510Z,14.01
2019-06-26T08:49:30.942Z,15.40
2019-06-26T08:54:40.103Z,13.73
2019-06-26T08:59:49.487Z,13.41
2019-06-26T09:04:58.558Z,15.82
2019-06-26T09:10:07.730Z,15.47
2019-06-26T09:15:16.840Z,17.33
2019-06-26T09:20:25.995Z,10.77
2019-06-26T09:25:35.089Z,12.74
2019-06-26T09:30:45.287Z,12.78
2019-06-26T09:35:44.338Z,11.06
2019-06-26T09:40:53.528Z,10.99
2019-06-26T09:46:02.639Z,10.87
2019-06-26T09:51:11.840Z,9.40
2019-06-26T09:56:20.981Z,9.98
2019-06-26T10:01:31.209Z,7.60
2019-06-26T10:06:30.292Z,9.23
2019-06-26T10:11:39.427Z,9.12
2019-06-26T10:16:48.522Z,9.71
2019-06-26T10:21:57.697Z,8.82
2019-06-26T10:27:06.786Z,9.62
2019-06-26T10:32:15.976Z,9.58
2019-06-26T10:37:25.080Z,9.57
2019-06-26T10:42:34.278Z,9.55
2019-06-26T10:47:43.406Z,11.71
2019-06-26T10:52:52.559Z,11.77
2019-06-26T10:58:01.684Z,11.62
2019-06-26T11:03:11.016Z,14.03
2019-06-26T11:08:20.104Z,12.68
2019-06-26T11:13:29.492Z,11.40
2019-06-26T11:18:38.517Z,12.79
2019-06-26T11:23:47.698Z,7.98
2019-06-26T11:28:56.824Z,6.80
2019-06-26T11:34:06.020Z,6.92
2019-06-26T11:39:15.103Z,5.95
2019-06-26T11:44:24.387Z,5.59
2019-06-26T11:49:33.490Z,5.79
2019-06-26T11:54:42.638Z,5.69
2019-06-26T11:59:51.798Z,6.03
2019-06-26T12:05:01.012Z,5.78
2019-06-26T12:10:10.149Z,4.72
2019-06-26T12:15:19.612Z,4.90
2019-06-26T12:20:28.759Z,5.12
2019-06-26T12:25:37.944Z,4.86
2019-06-26T12:30:47.214Z,4.35
2019-06-26T12:35:56.332Z,4.72
2019-06-26T12:41:05.472Z,4.10
2019-06-26T12:46:17.940Z,4.88
2019-06-26T12:51:23.403Z,4.67
2019-06-26T12:56:32.607Z,4.77
2019-06-26T13:01:41.729Z,5.91
2019-06-26T13:06:50.996Z,4.78
2019-06-26T13:12:00.093Z,4.62
2019-06-26T13:17:09.386Z,4.37
2019-06-26T13:22:18.575Z,5.14
2019-06-26T13:27:27.842Z,4.84
2019-06-26T13:32:37.015Z,4.92
2019-06-26T13:37:46.230Z,4.10
2019-06-26T13:42:55.336Z,5.20
2019-06-26T13:48:04.596Z,4.48
2019-06-26T13:53:13.713Z,4.51
2019-06-26T13:58:22.998Z,4.83
2019-06-26T14:03:34.131Z,4.39
2019-06-26T14:08:33.293Z,4.03
2019-06-26T14:13:42.522Z,5.05
2019-06-26T14:18:51.720Z,4.70
2019-06-26T14:24:00.862Z,4.63
2019-06-26T14:29:20.476Z,5.13
2019-06-26T14:34:18.671Z,4.70
2019-06-26T14:39:27.861Z,4.27
2019-06-26T14:44:36.985Z,5.35
2019-06-26T14:49:46.157Z,5.01
2019-06-26T14:54:55.270Z,6.02
2019-06-26T15:00:04.431Z,5.85
2019-06-26T15:05:13.542Z,6.18
2019-06-26T15:10:22.711Z,7.33
2019-06-26T15:15:31.811Z,5.96
2019-06-26T15:20:41.042Z,5.50
2019-06-26T15:25:50.151Z,6.19
2019-06-26T15:30:59.413Z,9.57
2019-06-26T15:36:08.651Z,9.76
2019-06-26T15:41:17.821Z,8.83
2019-06-26T15:46:26.944Z,8.27
2019-06-26T15:51:36.125Z,14.31
2019-06-26T15:56:45.226Z,11.12
2019-06-26T16:01:54.447Z,13.99
2019-06-26T16:07:03.571Z,7.81
2019-06-26T16:12:12.759Z,9.76
2019-06-26T16:17:21.877Z,7.76
2019-06-26T16:22:32.550Z,7.57
2019-06-26T16:27:39.834Z,5.34
2019-06-26T16:32:49.073Z,5.96
2019-06-26T16:37:58.225Z,4.85
2019-06-26T16:43:07.503Z,7.33
2019-06-26T16:48:16.628Z,5.62
2019-06-26T16:53:25.901Z,4.02
2019-06-26T16:58:35.016Z,3.70
2019-06-26T17:03:44.169Z,3.58
2019-06-26T17:08:53.283Z,3.70
2019-06-26T17:14:02.585Z,3.74
2019-06-26T17:19:11.713Z,3.72
2019-06-26T17:24:21.079Z,3.68
2019-06-26T17:29:30.218Z,3.75
2019-06-26T17:34:39.581Z,3.92
2019-06-26T17:39:48.705Z,3.89
2019-06-26T17:44:57.840Z,4.20
2019-06-26T17:50:06.973Z,3.90
2019-06-26T17:55:16.137Z,3.60
2019-06-26T18:00:25.344Z,3.35
2019-06-26T18:05:34.668Z,3.53
2019-06-26T18:10:43.821Z,3.57
2019-06-26T18:15:52.961Z,3.76
2019-06-26T18:21:02.061Z,3.40
2019-06-26T18:26:13.403Z,3.31
2019-06-26T18:31:20.003Z,3.48
2019-06-26T18:36:29.327Z,2.69
2019-06-26T18:41:38.482Z,2.93
2019-06-26T18:46:47.621Z,3.04
2019-06-26T18:51:56.726Z,3.11
2019-06-26T18:57:05.928Z,3.20
2019-06-26T19:02:17.325Z,2.91
2019-06-26T19:07:16.499Z,2.88
2019-06-26T19:12:25.615Z,3.03
2019-06-26T19:17:35.813Z,2.66
2019-06-26T19:22:34.885Z,2.78
2019-06-26T19:27:44.120Z,2.71
2019-06-26T19:32:53.232Z,2.75
2019-06-26T19:38:02.423Z,2.98
2019-06-26T19:43:11.529Z,3.07
2019-06-26T19:48:20.703Z,2.88
2019-06-26T19:53:29.802Z,3.20
2019-06-26T19:58:39.015Z,3.12
2019-06-26T20:03:48.133Z,3.40
2019-06-26T20:08:57.727Z,3.13
2019-06-26T20:14:06.543Z,2.76
2019-06-26T20:19:15.832Z,2.85
2019-06-26T20:24:24.937Z,2.44
2019-06-26T20:29:34.056Z,2.85
2019-06-26T20:34:43.165Z,2.86
2019-06-26T20:39:52.331Z,2.97
2019-06-26T20:45:01.448Z,2.69
2019-06-26T20:50:10.709Z,2.38
2019-06-26T20:55:19.812Z,2.61
2019-06-26T21:00:28.998Z,2.54
2019-06-26T21:05:38.143Z,2.46
2019-06-26T21:10:47.413Z,2.62
2019-06-26T21:15:56.490Z,2.71
2019-06-26T21:21:05.667Z,2.91
2019-06-26T21:26:14.744Z,3.32
2019-06-26T21:31:23.914Z,2.81
2019-06-26T21:36:33.023Z,2.77
2019-06-26T21:41:42.350Z,3.00
2019-06-26T21:46:51.422Z,3.33
2019-06-26T21:52:00.587Z,3.77
2019-06-26T21:57:09.654Z,2.96
2019-06-26T22:02:19.016Z,3.05
2019-06-26T22:07:28.154Z,3.08
2019-06-26T22:12:37.418Z,3.00
2019-06-26T22:17:46.464Z,3.21
2019-06-26T22:22:55.806Z,3.06
2019-06-26T22:28:04.894Z,3.31
2019-06-26T22:33:14.082Z,2.90
2019-06-26T22:38:23.157Z,2.92
2019-06-26T22:43:32.344Z,3.07
2019-06-26T22:48:41.481Z,3.07
2019-06-26T22:53:50.645Z,2.97
2019-06-26T22:58:59.764Z,3.27
2019-06-26T23:04:09.062Z,2.96
2019-06-26T23:09:18.254Z,3.02
2019-06-26T23:14:27.418Z,2.93
2019-06-26T23:19:36.555Z,3.60
2019-06-26T23:24:45.852Z,3.51
2019-06-26T23:29:54.998Z,3.28
2019-06-26T23:35:04.137Z,3.67
2019-06-26T23:40:13.330Z,3.79
2019-06-26T23:45:22.679Z,3.83
2019-06-26T23:50:31.753Z,3.51
2019-06-26T23:55:40.896Z,3.61
